• Join FlightAware (Why Join?)
  • Login
  • US Flag 
01:39PM EST


 

Airport Tracker/Info


-or-


 

Live Flight TrackerFlight Track Log ✈ CHB6225 ✈ 18-Aug-2014 ✈ ZUCK / CKG - ZUJZ / JZH

Flight Track Log - Related Links

Times and Time Zones

All times are in EDT time to prevent confusion due to time zone crossing. See the CHB6225 flight status page for this flight to view local times or setup timezone preferences in your user account.

Time Position Orientation Groundspeed Altitude Reporting Facility
EDT Latitude Longitude Course Direction KTS MPH feet Rate Location/Type
07:41PM 30.0263 106.3628 322° Northwest  Level Estimated
07:42PM 30.0774 106.3163 322° Northwest  Level Estimated
07:43PM 30.1285 106.2697 322° Northwest  Level Estimated
07:44PM 30.1795 106.2231 322° Northwest  Level Estimated
07:45PM 30.2306 106.1764 322° Northwest  Level Estimated
07:46PM 30.2816 106.1297 322° Northwest  Level Estimated
07:47PM 30.3326 106.0829 322° Northwest  Level Estimated
07:48PM 30.3836 106.0361 322° Northwest  Level Estimated
07:49PM 30.4346 105.9892 322° Northwest  Level Estimated
07:50PM 30.4855 105.9423 322° Northwest  Level Estimated
07:51PM 30.5365 105.8953 322° Northwest  Level Estimated
07:52PM 30.5874 105.8483 322° Northwest  Level Estimated
07:53PM 30.6383 105.8012 322° Northwest  Level Estimated
07:54PM 30.6892 105.7541 321° Northwest  Level Estimated
07:55PM 30.7401 105.7070 321° Northwest  Level Estimated
07:56PM 30.7909 105.6598 321° Northwest  Level Estimated
07:57PM 30.8418 105.6125 321° Northwest  Level Estimated
07:58PM 30.8926 105.5652 321° Northwest  Level Estimated
07:59PM 30.9434 105.5178 321° Northwest  Level Estimated
08:00PM 30.9942 105.4704 321° Northwest  Level Estimated
08:01PM 31.0450 105.4229 321° Northwest  Level Estimated
08:02PM 31.0957 105.3754 321° Northwest  Level Estimated
08:03PM 31.1465 105.3278 321° Northwest  Level Estimated
08:04PM 31.1972 105.2802 321° Northwest  Level Estimated
08:05PM 31.2479 105.2325 321° Northwest  Level Estimated
08:06PM 31.2986 105.1848 321° Northwest  Level Estimated
08:07PM 31.3493 105.1370 321° Northwest  Level Estimated
08:08PM 31.3999 105.0892 321° Northwest  Level Estimated
08:09PM 31.4505 105.0413 321° Northwest  Level Estimated
08:10PM 31.5012 104.9934 321° Northwest  Level Estimated
08:11PM 31.5518 104.9454 321° Northwest  Level Estimated
08:12PM 31.6023 104.8974 321° Northwest  Level Estimated
08:13PM 31.6529 104.8493 321° Northwest  Level Estimated
08:14PM 31.7034 104.8012 321° Northwest  Level Estimated
08:15PM 31.7540 104.7530 321° Northwest  Level Estimated
08:16PM 31.8045 104.7047 321° Northwest  Level Estimated
08:17PM 31.8549 104.6564 321° Northwest  Level Estimated
08:18PM 31.9054 104.6081 321° Northwest  Level Estimated
08:19PM 31.9559 104.5597 321° Northwest  Level Estimated
08:20PM 32.0063 104.5113 321° Northwest  Level Estimated
08:21PM 32.0567 104.4627 321° Northwest  Level Estimated
08:22PM 32.1071 104.4142 321° Northwest  Level Estimated
08:23PM 32.1575 104.3656 321° Northwest  Level Estimated
08:24PM 32.2079 104.3169 321° Northwest  Level Estimated
08:25PM 32.2582 104.2682 321° Northwest  Level Estimated
08:26PM 32.3085 104.2194 321° Northwest  Level Estimated
08:27PM 32.3588 104.1706 321° Northwest  Level Estimated
08:28PM 32.4091 104.1217 321° Northwest  Level Estimated
08:29PM 32.4594 104.0727 321° Northwest  Level Estimated
08:30PM 32.5096 104.0238 321° Northwest  Level Estimated
08:31PM 32.5598 103.9747 321° Northwest  Level Estimated
08:32PM 32.6101 103.9256 321° Northwest  Level Estimated
08:33PM 32.6602 103.8764 320° Northwest  Level Estimated
08:34PM 32.7104 103.8272 320° Northwest  Level Estimated
08:35PM 32.7606 103.7779 320° Northwest  Level Estimated
08:36PM 32.8107 103.7286 320° Northwest  Level Estimated
08:37PM 32.8570 103.6830 320° Northwest  Level Estimated
08:38PM 32.8570 103.6830 North  Level Estimated
08:39PM 32.8570 103.6830 North  Level Estimated
08:40PM 32.8570 103.6830 North  Level Estimated
08:41PM 32.8570 103.6830 North  Level Estimated
08:42PM 32.8570 103.6830 North  Level Estimated
08:43PM 32.8570 103.6830 North  Level Estimated
08:44PM 32.8570 103.6830 North  Level Estimated
08:45PM 32.8570 103.6830 North  Level Estimated
08:46PM 32.8570 103.6830 North  Level Estimated